x

Ne Bahamas - 350 Nm Ene Of Nassau, Bahamas (41047) Wave Buoy

4:50pm - Mon 24th Nov 2014 All times are UTC.

  • Sig Wave height 7.2ft
  • Swell Direction
  • Peak Period 8s
  • Average Period 6s
  • Wind
    16mph, 20mph gusts
  • Sea Temp 78°f
  • Air Temp 79°f
  • Sea Pressure 1020.4mb

More Historic Weather Station data

Upgrade to MSW Pro to gain access to the past 30 days of data for over 8000 Wavebouys and Weather Stations around the globe.

Join Pro

Comparision Forecast

View Surf forecast
   
Mon 11/24 4:50pm 7ft 8s 6s 16 20 mph 1020.4mb 78f 79f
3:50pm 8ft 9s 7s 20 25 mph 1020.9mb 78f 78f
2:50pm 9ft 8s  -  18 20 mph 1021.1mb 78f 78f
1:50pm 8ft 9s 6s 22 27 mph 1020.6mb 78f 77f
12:50pm 7.5ft 8s 6s 13 18 mph 1021.2mb 78f 77f
11:50am 8.5ft 9s 7s 13 18 mph 1020.5mb 78f 79f
10:50am 9ft 8s 7s 13 16 mph 1020mb 78f 78f
9:50am 8ft 9s 7s 16 20 mph 1019.5mb 78f 78f
8:50am 9ft 8s 7s 16 20 mph 1019.2mb 78f 78f
7:50am 9ft 8s 7s 18 22 mph 1018.9mb 78f 78f
6:50am 8.5ft 9s 7s 20 22 mph 1018.9mb 78f 78f
5:50am 8ft 9s 6s 20 22 mph 1019.3mb 78f 78f
4:50am 8.5ft 8s 6s 20 25 mph 1019.8mb 78f 78f
3:50am 8ft 8s 6s 22 27 mph 1020.2mb 78f 78f
2:50am 8ft 8s 6s 22 27 mph 1020.2mb 78f 78f
1:50am 8ft 8s 6s 22 27 mph 1020.6mb 78f 78f
12:50am 8.5ft 8s 6s 25 29 mph 1019.8mb 78f 78f
Sun 11/23 11:50pm 8.5ft 10s 6s 25 29 mph 1019.7mb 78f 78f
10:50pm 8.5ft 7s 6s 20 27 mph 1019.8mb 78f 78f
9:50pm 8.5ft 9s 6s 22 27 mph 1019.7mb 78f 78f
8:50pm 9ft 10s 6s 25 29 mph 1019.5mb 78f 77f
7:50pm 9ft 8s 6s 22 27 mph 1019.6mb 78f 77f
6:50pm 8ft 9s 6s 22 27 mph 1019.6mb 78f 77f
5:50pm 7.5ft 10s 6s 22 25 mph 1020.4mb 78f 77f
4:50pm 9ft 9s 6s 22 27 mph 1021.3mb 78f 77f
3:50pm 8ft 10s  -  22 27 mph 1022.2mb 78f 77f
2:50pm 8ft 10s 6s 22 27 mph 1022.9mb 78f 77f
1:50pm 9ft 10s 6s 22 27 mph 1023.2mb 78f 76f
12:50pm 9ft 8s 7s 22 27 mph 1022.6mb 78f 76f
11:50am 8.5ft 9s 6s 22 29 mph 1022.3mb 78f 76f
10:50am 8ft 9s 6s 22 27 mph 1022mb 78f 76f
9:50am 9ft 9s 7s 22 27 mph 1021.9mb 78f 75f
8:50am 8.5ft 10s 7s 22 27 mph 1021.8mb 78f 75f
7:50am 9.5ft 8s 7s 22 27 mph 1022mb 78f 75f
6:50am 9.5ft 8s 6s 22 27 mph 1022.2mb 78f 75f
5:50am 9.5ft 11s 7s 22 27 mph 1022.7mb 78f 75f
4:50am 8.5ft 11s 6s 22 27 mph 1023.2mb 78f 75f
3:50am 8ft 9s 6s 22 27 mph 1023.9mb 78f 75f
2:50am 8ft 8s 6s 22 27 mph 1024.2mb 78f 75f
1:50am 7.5ft 8s 6s 22 27 mph 1024.5mb 78f 75f
12:50am 7ft 7s 6s 22 29 mph 1024.4mb 78f 74f
Sat 11/22 11:50pm 8.5ft 7s 6s 25 29 mph 1024mb 78f 74f
10:50pm 8ft 8s 6s 25 27 mph 1023.7mb 78f 74f
9:50pm 8ft 7s 6s 25 29 mph 1023.5mb 78f 74f
8:50pm 7.5ft 7s 6s 25 31 mph 1023.7mb 78f 74f
7:50pm 8ft 8s 6s 22 29 mph 1023.4mb 78f 74f
6:50pm 8ft 8s 6s 25 29 mph 1023.6mb 78f 74f
5:50pm 8ft 8s 6s 25 31 mph 1023.9mb 78f 74f
4:50pm 8ft 8s 6s 25 29 mph 1024.5mb 78f 74f
3:50pm 8.5ft 8s 6s 27 34 mph 1024.8mb 78f 74f
2:50pm 8ft 8s 5s 27 31 mph 1025.3mb 78f 73f
1:50pm 8ft 7s 6s 27 31 mph 1025.2mb 78f 74f
12:50pm 9ft 8s 6s 27 31 mph 1024.6mb 78f 74f
11:50am 8ft 7s 6s 27 31 mph 1024.1mb 78f 74f
10:50am 7.5ft 7s 6s 27 31 mph 1023.6mb 78f 75f
9:50am 8ft 7s 6s 27 34 mph 1023.2mb 78f 74f
8:50am 7.5ft 6s 6s 27 31 mph 1023mb 78f 74f
7:50am 7ft 6s 5s 27 31 mph 1022.9mb 78f 74f
6:50am 7ft 7s 5s 22 27 mph 1023.4mb 78f 75f
5:50am 7ft 6s 5s 25 29 mph 1023.1mb 78f 75f
4:50am 6.5ft 7s 5s 25 29 mph 1023.4mb 78f 75f
3:50am 7ft 7s 5s 25 31 mph 1023.9mb 78f 75f
2:50am 6.5ft 6s 5s 25 29 mph 1024.1mb 78f 75f
1:50am 7ft 6s 5s 25 29 mph 1023.6mb 78f 75f
12:50am 7ft 6s 5s 22 27 mph 1023.5mb 78f 74f
Fri 11/21 11:50pm 6.5ft 9s 5s 25 29 mph 1023mb 78f 74f
10:50pm 6ft 6s 5s 22 27 mph 1022mb 78f 74f
9:50pm 6ft 6s 5s 22 27 mph 1021.9mb 78f 74f
8:50pm 6ft 8s 5s 25 29 mph 1021.3mb 78f 74f
7:50pm 6ft 8s 5s 22 27 mph 1021.4mb 78f 74f
6:50pm 6ft 8s 5s 25 29 mph 1021.1mb 78f 74f
5:50pm 6ft 8s 5s 22 25 mph 1021.6mb 78f 75f
4:50pm 6ft 8s 5s 20 25 mph 1022.3mb 78f 75f
3:50pm 6ft 8s 5s 20 27 mph 1022.4mb 78f 75f
2:50pm 6ft 8s 5s 22 27 mph 1022.3mb 78f 75f
1:50pm 5ft 8s 5s 22 27 mph 1021.6mb 78f 75f
12:50pm 5.5ft 8s 5s 20 25 mph 1021.5mb 78f 74f
11:50am 5.5ft 8s 5s 20 25 mph 1020.8mb 78f 74f
10:50am 5.5ft 8s 5s 20 22 mph 1020.1mb 78f 74f
9:50am 6ft 8s 6s 18 22 mph 1020.1mb 78f 74f
8:50am 6ft 8s 6s 18 22 mph 1019.7mb 78f 73f
7:50am 5.5ft 8s 6s 18 22 mph 1019.7mb 78f 73f
6:50am 6ft 8s 6s 18 22 mph 1019.7mb 78f 74f
5:50am 5.5ft 8s 6s 16 20 mph 1020.1mb 78f 74f
4:50am 6.5ft 8s 6s 16 22 mph 1020.5mb 78f 74f
3:50am 7ft 9s 6s 18 22 mph 1020.5mb 78f 74f
2:50am 6.5ft 8s 6s 20 25 mph 1020.3mb 78f 74f
1:50am 6.5ft 8s 6s 20 25 mph 1020.2mb 78f 74f
12:50am 6.5ft 8s 6s 20 25 mph 1020.1mb 78f 73f
Thu 11/20 11:50pm 7ft 8s 6s 20 25 mph 1019.9mb 78f 73f
10:50pm 7.5ft 8s 6s 20 27 mph 1019.1mb 78f 74f
9:50pm 7.5ft 8s 6s 22 27 mph 1018.8mb 78f 73f
8:50pm 7ft 8s 6s 22 27 mph 1018.4mb 78f 73f
7:50pm 8ft 8s 6s 22 25 mph 1018.4mb 78f 73f
6:50pm 7ft 9s 6s 22 29 mph 1018.2mb 78f 74f